Time;durP1;ratioP1;P1;durP2;ratioP2;P2;SDS_P1;SDS_P2;PMS_P1;PMS_P2;Temp;Humidity;BMP_temperature;BMP_pressure;BME280_temperature;BME280_humidity;BME280_pressure;Samples;Min_cycle;Max_cycle;Signal;HPM_P1;HPM_P2
2024/01/27 00:01:34;;;;;;;6.03;2.15;;;3.70;99.90;;;;;;4983972;28;20030;-80
2024/01/27 00:04:00;;;;;;;1.15;0.50;;;3.70;99.90;;;;;;4996884;28;20076;-80
2024/01/27 00:06:26;;;;;;;7.18;1.10;;;3.70;99.90;;;;;;5005299;28;20127;-80
2024/01/27 00:08:52;;;;;;;2.53;1.00;;;3.70;99.90;;;;;;4989380;28;20554;-80
2024/01/27 00:11:18;;;;;;;2.17;1.00;;;3.60;99.90;;;;;;5000382;28;20038;-80
2024/01/27 00:13:45;;;;;;;5.35;1.00;;;3.50;99.90;;;;;;4997351;28;20471;-80
2024/01/27 00:16:11;;;;;;;7.43;0.60;;;3.40;99.90;;;;;;4998540;28;20513;-80
2024/01/27 00:18:37;;;;;;;5.88;0.77;;;3.30;99.90;;;;;;4980884;28;20057;-80
2024/01/27 00:21:05;;;;;;;4.63;1.02;;;3.30;99.90;;;;;;4997116;28;20054;-80
2024/01/27 00:23:32;;;;;;;12.88;2.05;;;3.40;99.90;;;;;;5001129;28;20037;-80
2024/01/27 00:25:58;;;;;;;2.50;0.77;;;3.40;99.90;;;;;;4956732;28;20101;-80
2024/01/27 00:28:24;;;;;;;6.07;0.75;;;3.40;99.90;;;;;;4996053;28;20038;-80
2024/01/27 00:30:50;;;;;;;5.72;1.50;;;3.40;99.90;;;;;;4993614;28;20046;-80
2024/01/27 00:33:16;;;;;;;1.27;0.75;;;3.40;99.90;;;;;;5001263;28;20081;-80
2024/01/27 00:35:42;;;;;;;2.50;1.05;;;3.40;99.90;;;;;;4976624;28;20462;-80
2024/01/27 00:38:08;;;;;;;4.78;1.38;;;3.30;99.90;;;;;;5001664;28;20042;-80
2024/01/27 00:40:34;;;;;;;5.38;0.75;;;3.30;99.90;;;;;;4971869;28;20034;-80
2024/01/27 00:43:01;;;;;;;2.17;0.70;;;3.30;99.90;;;;;;4993556;28;20042;-80
2024/01/27 00:45:28;;;;;;;2.70;1.00;;;3.30;99.90;;;;;;4993239;28;20034;-81
2024/01/27 00:47:54;;;;;;;1.00;0.75;;;3.20;99.90;;;;;;4972041;28;20073;-80
2024/01/27 00:50:20;;;;;;;2.28;0.73;;;3.20;99.90;;;;;;4975953;28;20459;-80
2024/01/27 00:52:45;;;;;;;3.35;0.98;;;3.20;99.90;;;;;;4988524;28;20061;-80
2024/01/27 00:55:11;;;;;;;1.48;0.82;;;3.20;99.90;;;;;;4997390;28;20045;-80
2024/01/27 00:57:38;;;;;;;3.90;0.55;;;3.20;99.90;;;;;;4986056;28;20544;-80
2024/01/27 01:00:08;;;;;;;2.05;0.98;;;3.20;99.90;;;;;;4961406;28;20034;-80
2024/01/27 01:02:35;;;;;;;6.68;0.70;;;3.10;99.90;;;;;;4995584;28;20093;-80
2024/01/27 01:05:01;;;;;;;1.20;0.80;;;3.10;99.90;;;;;;4961122;28;20357;-80
2024/01/27 01:07:27;;;;;;;9.70;1.70;;;3.20;99.90;;;;;;4994914;28;20568;-80
2024/01/27 01:09:52;;;;;;;6.43;0.73;;;3.30;99.90;;;;;;4995877;28;20069;-80
2024/01/27 01:12:18;;;;;;;3.45;1.08;;;3.30;99.90;;;;;;4995768;28;20041;-80
2024/01/27 01:14:44;;;;;;;0.60;0.57;;;3.30;99.90;;;;;;4974508;28;20120;-81
2024/01/27 01:17:10;;;;;;;2.40;0.77;;;3.20;99.90;;;;;;4960459;28;20496;-80
2024/01/27 01:19:41;;;;;;;4.53;0.63;;;3.20;99.90;;;;;;5008032;28;20050;-80
2024/01/27 01:22:07;;;;;;;2.60;0.95;;;3.20;99.90;;;;;;4999426;28;20041;-80
2024/01/27 01:24:33;;;;;;;6.20;1.30;;;3.10;99.90;;;;;;4995469;28;20041;-80
2024/01/27 01:26:59;;;;;;;5.50;0.85;;;3.10;99.90;;;;;;5000624;28;20077;-80
2024/01/27 01:29:25;;;;;;;5.05;1.13;;;3.10;99.90;;;;;;5000066;28;23445;-80
2024/01/27 01:31:52;;;;;;;3.25;0.80;;;3.00;99.90;;;;;;4998645;28;20041;-80
2024/01/27 01:34:17;;;;;;;3.53;0.70;;;3.00;99.90;;;;;;4999856;28;20112;-80
2024/01/27 01:36:43;;;;;;;7.60;1.35;;;3.10;99.90;;;;;;4997560;28;20117;-80
2024/01/27 01:39:10;;;;;;;7.13;0.98;;;3.10;99.90;;;;;;5002127;28;20042;-80
2024/01/27 01:41:36;;;;;;;3.67;1.88;;;3.10;99.90;;;;;;4991167;28;20080;-80
2024/01/27 01:44:02;;;;;;;4.55;1.50;;;3.10;99.90;;;;;;4986177;28;20434;-80
2024/01/27 01:46:28;;;;;;;4.28;1.48;;;3.00;99.90;;;;;;4988312;28;20046;-80
2024/01/27 01:48:54;;;;;;;3.53;1.98;;;3.00;99.90;;;;;;5005658;28;20483;-80
2024/01/27 01:51:20;;;;;;;2.55;0.50;;;3.00;99.90;;;;;;4985439;28;20049;-80
2024/01/27 01:53:49;;;;;;;2.55;0.77;;;2.90;99.90;;;;;;5003266;28;20069;-80
2024/01/27 01:56:15;;;;;;;4.60;0.75;;;2.90;99.90;;;;;;4987111;28;20049;-80
2024/01/27 01:58:41;;;;;;;1.58;0.90;;;2.80;99.90;;;;;;4993919;28;20387;-80
2024/01/27 02:01:07;;;;;;;6.15;1.67;;;2.80;99.90;;;;;;4995231;28;20030;-80
2024/01/27 02:03:33;;;;;;;4.35;1.27;;;2.70;99.90;;;;;;4998091;28;20088;-80
2024/01/27 02:05:59;;;;;;;6.22;1.48;;;2.70;99.90;;;;;;4990513;28;20121;-80
2024/01/27 02:08:25;;;;;;;2.83;0.77;;;2.70;99.90;;;;;;4993954;28;20493;-80
2024/01/27 02:10:51;;;;;;;11.48;1.00;;;2.60;99.90;;;;;;4979437;28;20037;-80
2024/01/27 02:13:22;;;;;;;9.65;1.10;;;2.60;99.90;;;;;;5008621;28;20080;-80
2024/01/27 02:15:53;;;;;;;8.65;1.20;;;2.60;99.90;;;;;;5018824;28;20178;-80
2024/01/27 02:18:20;;;;;;;10.13;1.85;;;2.60;99.90;;;;;;5008007;28;20116;-80
2024/01/27 02:20:46;;;;;;;4.57;0.88;;;2.50;99.90;;;;;;4996695;28;20057;-80
2024/01/27 02:23:12;;;;;;;4.03;1.38;;;2.50;99.90;;;;;;5001018;28;20033;-80
2024/01/27 02:25:38;;;;;;;10.20;1.40;;;2.50;99.90;;;;;;5001523;28;20085;-80
2024/01/27 02:28:04;;;;;;;2.55;0.88;;;2.50;99.90;;;;;;4998431;28;20038;-80
2024/01/27 02:30:30;;;;;;;2.88;0.73;;;2.50;99.90;;;;;;4998652;28;20046;-80
2024/01/27 02:32:58;;;;;;;6.68;1.63;;;2.50;99.90;;;;;;4996037;28;20099;-80
2024/01/27 02:35:24;;;;;;;3.55;0.70;;;2.50;99.90;;;;;;4996596;28;20043;-80
2024/01/27 02:37:50;;;;;;;2.83;0.70;;;2.50;99.90;;;;;;4991411;28;20045;-80
2024/01/27 02:40:16;;;;;;;5.20;1.13;;;2.50;99.90;;;;;;4999461;28;20042;-80
2024/01/27 02:42:43;;;;;;;4.68;0.85;;;2.40;99.90;;;;;;5005244;28;20041;-80
2024/01/27 02:45:09;;;;;;;1.05;0.32;;;2.40;99.90;;;;;;5001193;28;20038;-81
2024/01/27 02:47:35;;;;;;;1.85;0.57;;;2.30;99.90;;;;;;5006624;28;20041;-81
2024/01/27 02:50:01;;;;;;;3.63;1.42;;;2.30;99.90;;;;;;5008037;28;20045;-80
2024/01/27 02:52:27;;;;;;;4.70;1.38;;;2.30;99.90;;;;;;5006312;28;20123;-81
2024/01/27 02:54:53;;;;;;;4.85;0.82;;;2.30;99.90;;;;;;4999373;28;20121;-81
2024/01/27 02:57:19;;;;;;;9.50;1.05;;;2.30;99.90;;;;;;4999379;28;20390;-81
2024/01/27 02:59:49;;;;;;;3.90;0.98;;;2.40;99.90;;;;;;4988049;28;20048;-81
2024/01/27 03:02:15;;;;;;;0.52;0.43;;;2.50;99.90;;;;;;4987139;28;20049;-80
2024/01/27 03:04:41;;;;;;;3.63;1.55;;;2.50;99.90;;;;;;4989440;28;20041;-80
2024/01/27 03:07:10;;;;;;;3.13;0.82;;;2.50;99.90;;;;;;5001658;28;20049;-80
2024/01/27 03:09:36;;;;;;;5.20;1.10;;;2.50;99.90;;;;;;5012126;28;20076;-80
2024/01/27 03:12:02;;;;;;;1.63;0.68;;;2.40;99.90;;;;;;5007767;28;20087;-80
2024/01/27 03:14:28;;;;;;;2.60;1.00;;;2.40;99.90;;;;;;4980672;28;20045;-80
2024/01/27 03:16:54;;;;;;;4.53;1.25;;;2.40;99.90;;;;;;4997467;28;20049;-80
2024/01/27 03:19:20;;;;;;;2.08;0.93;;;2.40;99.90;;;;;;5001143;28;20050;-80
2024/01/27 03:21:46;;;;;;;7.68;1.40;;;2.40;99.90;;;;;;5000825;28;20041;-81
2024/01/27 03:24:12;;;;;;;0.43;0.40;;;2.50;99.90;;;;;;4991402;28;20046;-81
2024/01/27 03:26:38;;;;;;;6.05;1.23;;;2.50;99.90;;;;;;4996967;28;20061;-81
2024/01/27 03:29:03;;;;;;;8.57;1.27;;;2.50;99.90;;;;;;4999276;28;20096;-81
2024/01/27 03:31:36;;;;;;;2.83;0.98;;;2.50;99.90;;;;;;4996167;28;20045;-80
2024/01/27 03:34:03;;;;;;;5.32;1.35;;;2.60;99.90;;;;;;5000371;28;20039;-81
2024/01/27 03:36:29;;;;;;;4.00;1.25;;;2.60;99.90;;;;;;5004553;28;20049;-81
2024/01/27 03:38:57;;;;;;;7.78;0.98;;;2.60;99.90;;;;;;5001463;28;20038;-81
2024/01/27 03:41:22;;;;;;;9.98;1.73;;;2.60;99.90;;;;;;5005104;28;20037;-81
2024/01/27 03:43:48;;;;;;;1.23;0.73;;;2.60;99.90;;;;;;4998167;28;20048;-81
2024/01/27 03:46:14;;;;;;;3.03;1.15;;;2.50;99.90;;;;;;5004982;28;20055;-81
2024/01/27 03:48:40;;;;;;;5.90;1.48;;;2.50;99.90;;;;;;5003929;28;20037;-81
2024/01/27 03:51:06;;;;;;;11.88;2.33;;;2.50;99.90;;;;;;4985984;28;20545;-81
2024/01/27 03:53:32;;;;;;;10.95;1.77;;;2.50;99.90;;;;;;4997322;28;20092;-81
2024/01/27 03:56:04;;;;;;;3.03;1.42;;;2.60;99.90;;;;;;5006797;28;20042;-81
2024/01/27 03:58:31;;;;;;;10.70;1.15;;;2.60;99.90;;;;;;4986880;28;20429;-81
2024/01/27 04:00:57;;;;;;;3.72;1.52;;;2.60;99.90;;;;;;4998931;28;20104;-81
2024/01/27 04:03:23;;;;;;;10.43;1.27;;;2.60;99.90;;;;;;5005015;28;20149;-81
2024/01/27 04:05:49;;;;;;;2.90;1.27;;;2.60;99.90;;;;;;5001338;28;20046;-81
2024/01/27 04:08:15;;;;;;;2.28;1.30;;;2.60;99.90;;;;;;5000436;28;20099;-81
2024/01/27 04:10:41;;;;;;;2.13;0.88;;;2.70;99.90;;;;;;4992846;28;20045;-81
2024/01/27 04:13:07;;;;;;;2.70;1.38;;;2.60;99.90;;;;;;5006433;28;20042;-81
2024/01/27 04:15:38;;;;;;;3.80;1.08;;;2.60;99.90;;;;;;4999887;28;20550;-81
2024/01/27 04:18:08;;;;;;;6.03;1.35;;;2.60;99.90;;;;;;4981201;28;20478;-81
2024/01/27 04:20:34;;;;;;;;;;;2.70;99.90;;;;;;5003331;28;20053;-81
2024/01/27 04:23:00;;;;;;;2.35;1.15;;;2.70;99.90;;;;;;4994780;28;19921;-80
2024/01/27 04:25:26;;;;;;;3.28;0.82;;;2.70;99.90;;;;;;4988503;28;20046;-81
2024/01/27 04:27:52;;;;;;;1.90;0.90;;;2.70;99.90;;;;;;4993848;28;20045;-81
2024/01/27 04:30:18;;;;;;;4.07;1.00;;;2.70;99.90;;;;;;5001429;28;20042;-80
2024/01/27 04:32:44;;;;;;;2.58;1.83;;;2.70;99.90;;;;;;4989037;28;20042;-81
2024/01/27 04:35:10;;;;;;;2.95;1.85;;;2.80;99.90;;;;;;4998956;28;20076;-81
2024/01/27 04:37:36;;;;;;;5.93;1.52;;;2.80;99.90;;;;;;5004072;28;20125;-81
2024/01/27 04:40:07;;;;;;;8.07;1.15;;;2.80;99.90;;;;;;4981329;28;20513;-81
2024/01/27 04:42:38;;;;;;;7.72;1.38;;;2.90;99.90;;;;;;4996226;28;20096;-81
2024/01/27 04:45:05;;;;;;;2.40;0.63;;;2.90;99.90;;;;;;5002761;28;20105;-81
2024/01/27 04:47:31;;;;;;;4.78;1.10;;;2.90;99.90;;;;;;5004247;28;20033;-81
2024/01/27 04:49:59;;;;;;;4.18;0.60;;;2.90;99.90;;;;;;4977705;28;20030;-81
2024/01/27 04:52:25;;;;;;;1.63;1.08;;;3.00;99.90;;;;;;4988680;28;20074;-81
2024/01/27 04:54:51;;;;;;;1.85;0.82;;;2.90;99.90;;;;;;5006688;28;20490;-81
2024/01/27 04:57:17;;;;;;;1.52;1.02;;;3.00;99.90;;;;;;4999670;28;20041;-81
2024/01/27 04:59:43;;;;;;;4.50;1.52;;;3.00;99.90;;;;;;4998875;28;20037;-81
2024/01/27 05:02:08;;;;;;;7.28;1.75;;;3.00;99.90;;;;;;5004828;28;20034;-81
2024/01/27 05:04:34;;;;;;;3.33;0.55;;;3.00;99.90;;;;;;4988388;28;20521;-80
2024/01/27 05:07:00;;;;;;;6.22;1.48;;;3.00;99.90;;;;;;4997078;28;20072;-81
2024/01/27 05:09:26;;;;;;;6.15;0.85;;;3.10;99.90;;;;;;4996863;28;20038;-81
2024/01/27 05:11:53;;;;;;;9.27;2.13;;;3.10;99.90;;;;;;4996965;28;20042;-80
2024/01/27 05:14:19;;;;;;;1.50;0.77;;;3.00;99.90;;;;;;4994216;28;20062;-81
2024/01/27 05:16:45;;;;;;;2.15;1.20;;;3.10;99.90;;;;;;4983659;28;20049;-81
2024/01/27 05:19:11;;;;;;;3.53;1.13;;;3.00;99.90;;;;;;4981884;28;20133;-80
2024/01/27 05:21:38;;;;;;;4.50;0.90;;;3.10;99.90;;;;;;4990119;28;20124;-80
2024/01/27 05:24:04;;;;;;;2.78;1.08;;;3.10;99.90;;;;;;5002498;28;20060;-81
2024/01/27 05:26:30;;;;;;;18.67;1.15;;;3.10;99.90;;;;;;4996482;28;20046;-80
2024/01/27 05:28:56;;;;;;;6.10;1.20;;;3.00;99.90;;;;;;4985345;28;20079;-80
2024/01/27 05:31:22;;;;;;;6.78;1.80;;;3.00;99.90;;;;;;4987361;28;20436;-80
2024/01/27 05:33:48;;;;;;;8.50;1.00;;;3.00;99.90;;;;;;4986918;28;20040;-81
2024/01/27 05:36:13;;;;;;;1.10;0.93;;;3.00;99.90;;;;;;5001448;28;20041;-81
2024/01/27 05:38:39;;;;;;;4.50;0.80;;;3.00;99.90;;;;;;4993561;28;20041;-81
2024/01/27 05:41:05;;;;;;;3.80;1.08;;;3.00;99.90;;;;;;4993442;28;20046;-81
2024/01/27 05:43:31;;;;;;;1.95;1.23;;;3.00;99.90;;;;;;4976594;28;20453;-81
2024/01/27 05:45:56;;;;;;;1.95;1.15;;;3.00;99.90;;;;;;5006605;28;20041;-81
2024/01/27 05:48:22;;;;;;;4.90;2.13;;;3.10;99.90;;;;;;4975791;28;20090;-81
2024/01/27 05:51:00;;;;;;;4.18;0.98;;;3.10;99.90;;;;;;4987205;28;20048;-81
2024/01/27 05:53:27;;;;;;;5.72;1.23;;;3.00;99.90;;;;;;4992039;28;20038;-81
2024/01/27 05:55:56;;;;;;;4.88;1.13;;;3.00;99.90;;;;;;4998778;28;20042;-81
2024/01/27 05:58:22;;;;;;;4.05;1.50;;;3.00;99.90;;;;;;4986631;28;20502;-81
2024/01/27 06:00:48;;;;;;;8.50;1.13;;;3.00;99.90;;;;;;4990836;28;20042;-81
2024/01/27 06:03:15;;;;;;;3.25;0.90;;;3.00;99.90;;;;;;4996467;28;20074;-81
2024/01/27 06:05:42;;;;;;;2.28;0.80;;;3.00;99.90;;;;;;4981676;28;20460;-81
2024/01/27 06:08:08;;;;;;;6.85;1.90;;;3.00;99.90;;;;;;5001075;28;20046;-81
2024/01/27 06:10:36;;;;;;;3.25;0.93;;;3.00;99.90;;;;;;4988366;28;20523;-81
2024/01/27 06:13:02;;;;;;;4.65;1.52;;;3.00;99.90;;;;;;5002580;28;20063;-81
2024/01/27 06:15:28;;;;;;;2.05;0.68;;;3.00;99.90;;;;;;4980443;28;20126;-81
2024/01/27 06:17:54;;;;;;;5.00;0.82;;;3.00;99.90;;;;;;4990100;28;20116;-81
2024/01/27 06:20:19;;;;;;;4.03;1.30;;;3.00;99.90;;;;;;4997939;28;20112;-81
2024/01/27 06:22:45;;;;;;;0.95;0.63;;;2.90;99.90;;;;;;4999177;28;20493;-81
2024/01/27 06:25:11;;;;;;;8.60;1.48;;;2.90;99.90;;;;;;5000727;28;20045;-81
2024/01/27 06:27:38;;;;;;;5.82;1.00;;;2.80;99.90;;;;;;4989560;28;20110;-81
2024/01/27 06:30:05;;;;;;;2.50;0.88;;;2.80;99.90;;;;;;4999146;28;20445;-82
2024/01/27 06:32:31;;;;;;;8.38;1.35;;;2.80;99.90;;;;;;5001669;28;20112;-81
2024/01/27 06:34:57;;;;;;;2.67;1.67;;;2.70;99.90;;;;;;4998638;28;20061;-81
2024/01/27 06:37:22;;;;;;;2.08;0.85;;;2.70;99.90;;;;;;4985426;28;20447;-81
2024/01/27 06:39:48;;;;;;;2.90;0.75;;;2.70;99.90;;;;;;5006722;28;20061;-81
2024/01/27 06:42:14;;;;;;;9.32;1.42;;;2.70;99.90;;;;;;4995662;28;20042;-81
2024/01/27 06:44:40;;;;;;;5.68;1.42;;;2.60;99.90;;;;;;4988631;28;20088;-81
2024/01/27 06:47:06;;;;;;;2.53;1.20;;;2.60;99.90;;;;;;4995595;28;20069;-81
2024/01/27 06:49:33;;;;;;;4.82;1.33;;;2.50;99.90;;;;;;5005359;28;20068;-81
2024/01/27 06:51:59;;;;;;;3.75;1.27;;;2.50;99.90;;;;;;4991174;28;20058;-81
2024/01/27 06:54:25;;;;;;;4.55;2.47;;;2.50;99.90;;;;;;5002114;28;20188;-81
2024/01/27 06:56:50;;;;;;;11.27;1.70;;;2.40;99.90;;;;;;5002869;28;20070;-81
2024/01/27 06:59:16;;;;;;;2.40;1.38;;;2.40;99.90;;;;;;5003737;28;20469;-81
2024/01/27 07:01:48;;;;;;;8.85;2.13;;;2.40;99.90;;;;;;4994962;28;20042;-81
2024/01/27 07:04:15;;;;;;;2.42;0.93;;;2.40;99.90;;;;;;4994273;28;20443;-81
2024/01/27 07:06:41;;;;;;;5.85;0.98;;;2.40;99.90;;;;;;4993695;28;20108;-81
2024/01/27 07:09:07;;;;;;;1.40;0.98;;;2.30;99.90;;;;;;5001852;28;20394;-80
2024/01/27 07:11:33;;;;;;;4.15;1.38;;;2.30;99.90;;;;;;4989784;28;20039;-81
2024/01/27 07:13:59;;;;;;;12.77;1.52;;;2.20;99.90;;;;;;4982522;28;20041;-80
2024/01/27 07:16:25;;;;;;;7.80;1.38;;;2.20;99.90;;;;;;4997703;28;20387;-81
2024/01/27 07:18:51;;;;;;;8.95;1.38;;;2.20;99.90;;;;;;4993362;28;20038;-80
2024/01/27 07:21:17;;;;;;;3.10;1.13;;;2.10;99.90;;;;;;5007354;28;20453;-81
2024/01/27 07:23:43;;;;;;;3.58;1.10;;;2.10;99.90;;;;;;4995899;28;20037;-81
2024/01/27 07:26:10;;;;;;;5.75;2.25;;;2.10;99.90;;;;;;4999828;28;20087;-81
2024/01/27 07:28:39;;;;;;;;;;;2.10;99.90;;;;;;4982620;28;20073;-80
2024/01/27 07:31:05;;;;;;;2.33;1.00;;;2.10;99.90;;;;;;5002276;28;20335;-81
2024/01/27 07:33:31;;;;;;;5.65;1.83;;;2.10;99.90;;;;;;4992487;28;20042;-80
2024/01/27 07:35:57;;;;;;;3.78;1.13;;;2.10;99.90;;;;;;4985288;28;20034;-81
2024/01/27 07:38:23;;;;;;;10.32;1.73;;;2.10;99.90;;;;;;5004063;28;20412;-81
2024/01/27 07:40:49;;;;;;;1.90;1.27;;;2.10;99.90;;;;;;5000507;28;20040;-81
2024/01/27 07:43:14;;;;;;;1.98;1.27;;;2.10;99.90;;;;;;4992491;28;20042;-81
2024/01/27 07:45:40;;;;;;;13.02;2.38;;;2.10;99.90;;;;;;4996227;28;20069;-81
2024/01/27 07:48:07;;;;;;;5.65;1.77;;;2.00;99.90;;;;;;4986610;28;20046;-80
2024/01/27 07:50:33;;;;;;;2.72;1.98;;;2.00;99.90;;;;;;4993775;28;20034;-81
2024/01/27 07:52:59;;;;;;;9.23;2.88;;;2.00;99.90;;;;;;4993262;28;20073;-82
2024/01/27 07:55:25;;;;;;;9.43;2.05;;;2.10;99.90;;;;;;4983267;28;20069;-80
2024/01/27 07:58:03;;;;;;;4.47;2.25;;;2.10;99.90;;;;;;4997892;28;20091;-82
2024/01/27 08:00:28;;;;;;;6.18;1.70;;;2.10;99.90;;;;;;4996318;28;20038;-81
2024/01/27 08:02:54;;;;;;;6.30;1.73;;;2.20;99.90;;;;;;4992681;28;20092;-82
2024/01/27 08:05:20;;;;;;;3.28;1.40;;;2.30;99.90;;;;;;4996566;28;20096;-82
2024/01/27 08:07:46;;;;;;;4.20;2.10;;;2.30;99.90;;;;;;4992524;28;20041;-81
2024/01/27 08:10:11;;;;;;;9.73;2.67;;;2.40;99.90;;;;;;4999498;28;20140;-81
2024/01/27 08:12:38;;;;;;;5.30;2.17;;;2.40;99.90;;;;;;5002329;28;20037;-81
2024/01/27 08:15:04;;;;;;;3.40;1.42;;;2.50;99.90;;;;;;5004405;28;20033;-82
2024/01/27 08:17:30;;;;;;;4.57;2.22;;;2.60;99.90;;;;;;4984370;28;20117;-83
2024/01/27 08:19:55;;;;;;;4.75;1.83;;;2.70;99.90;;;;;;4999985;28;20497;-83
2024/01/27 08:22:21;;;;;;;5.82;2.00;;;2.80;99.90;;;;;;5000309;28;20049;-83
2024/01/27 08:24:47;;;;;;;10.27;2.58;;;2.90;99.90;;;;;;4986117;28;20037;-83
2024/01/27 08:27:13;;;;;;;9.13;2.65;;;3.10;99.90;;;;;;5011597;28;20053;-82
2024/01/27 08:29:39;;;;;;;5.68;2.08;;;3.30;99.90;;;;;;4996669;28;20038;-83
2024/01/27 08:32:05;;;;;;;3.22;1.42;;;3.40;99.90;;;;;;4987983;28;20490;-83
2024/01/27 08:34:31;;;;;;;7.68;2.28;;;3.60;99.90;;;;;;4988716;28;20042;-81
2024/01/27 08:37:02;;;;;;;10.73;2.60;;;3.80;99.90;;;;;;5003891;28;20037;-82
2024/01/27 08:39:28;;;;;;;11.48;3.63;;;4.10;99.90;;;;;;4987335;28;20171;-83
2024/01/27 08:41:53;;;;;;;15.75;5.25;;;4.40;99.90;;;;;;4983031;28;23356;-83
2024/01/27 08:44:20;;;;;;;10.95;4.20;;;4.70;99.90;;;;;;5003439;28;20325;-83
2024/01/27 08:46:46;;;;;;;9.70;4.55;;;4.90;99.90;;;;;;4987629;28;20041;-83
2024/01/27 08:49:11;;;;;;;14.05;4.18;;;5.20;99.90;;;;;;4986925;28;20478;-82
2024/01/27 08:51:37;;;;;;;5.22;3.20;;;5.40;99.90;;;;;;4994095;28;20105;-81
2024/01/27 08:54:03;;;;;;;14.45;3.58;;;5.70;99.90;;;;;;4988758;28;20030;-82
2024/01/27 08:56:29;;;;;;;7.63;2.72;;;5.90;99.90;;;;;;4985528;28;20116;-81
2024/01/27 08:58:55;;;;;;;19.08;3.20;;;6.30;99.90;;;;;;4999610;28;20125;-81
2024/01/27 09:01:21;;;;;;;5.38;2.15;;;6.80;99.90;;;;;;5001749;28;20129;-80
2024/01/27 09:03:46;;;;;;;5.38;2.15;;;7.40;99.90;;;;;;5003122;28;20077;-81
2024/01/27 09:06:12;;;;;;;11.00;3.05;;;8.00;99.90;;;;;;4986692;28;20438;-81
2024/01/27 09:08:38;;;;;;;4.32;2.08;;;8.30;99.90;;;;;;5003066;28;20088;-81
2024/01/27 09:11:04;;;;;;;3.67;2.17;;;8.60;99.90;;;;;;4991190;28;20045;-81
2024/01/27 09:13:30;;;;;;;6.05;1.88;;;8.90;99.90;;;;;;4990388;28;20045;-81
2024/01/27 09:15:59;;;;;;;15.82;2.58;;;9.20;99.90;;;;;;5001571;28;20426;-80
2024/01/27 09:18:26;;;;;;;8.30;2.47;;;9.60;99.90;;;;;;4983931;28;20037;-80
2024/01/27 09:20:52;;;;;;;8.00;2.50;;;10.00;99.90;;;;;;4993822;28;20100;-80
2024/01/27 09:23:18;;;;;;;5.35;2.08;;;10.40;99.90;;;;;;4988781;28;20038;-80
2024/01/27 09:25:44;;;;;;;7.85;2.58;;;10.90;99.90;;;;;;4981008;28;20042;-79
2024/01/27 09:28:09;;;;;;;11.00;2.47;;;11.20;99.90;;;;;;4998441;28;20136;-79
2024/01/27 09:30:35;;;;;;;7.80;1.58;;;11.60;99.90;;;;;;4986330;28;20046;-78
2024/01/27 09:33:01;;;;;;;6.47;1.42;;;12.00;99.90;;;;;;4984246;28;20050;-78
2024/01/27 09:35:27;;;;;;;7.03;2.00;;;12.40;99.90;;;;;;4972206;28;20045;-78
2024/01/27 09:37:52;;;;;;;6.20;1.67;;;12.80;99.90;;;;;;4984234;28;20045;-78
2024/01/27 09:40:19;;;;;;;12.02;2.05;;;12.90;99.90;;;;;;4979357;28;20034;-78
2024/01/27 09:42:54;;;;;;;13.55;2.25;;;13.00;99.90;;;;;;4986904;28;20034;-79
2024/01/27 09:45:22;;;;;;;10.90;2.10;;;13.20;99.90;;;;;;4977662;28;20521;-78
2024/01/27 09:47:49;;;;;;;9.75;2.42;;;13.30;99.90;;;;;;4976604;28;20545;-78
2024/01/27 09:50:17;;;;;;;7.20;2.25;;;13.50;99.90;;;;;;4979146;28;20046;-79
2024/01/27 09:52:43;;;;;;;8.55;3.25;;;13.70;99.90;;;;;;4961475;28;20062;-78
2024/01/27 09:55:09;;;;;;;11.18;3.70;;;13.80;99.90;;;;;;4975081;28;20042;-79
2024/01/27 09:57:38;;;;;;;11.10;3.40;;;13.90;99.90;;;;;;4991337;28;20053;-79
2024/01/27 10:00:09;;;;;;;6.55;2.58;;;14.20;99.90;;;;;;4989259;28;20046;-79
2024/01/27 10:02:36;;;;;;;8.88;2.50;;;14.50;99.90;;;;;;4991029;28;20184;-79
2024/01/27 10:05:02;;;;;;;8.32;2.75;;;14.50;99.90;;;;;;4990795;28;20052;-79
2024/01/27 10:07:28;;;;;;;10.85;2.63;;;14.50;99.90;;;;;;4996827;28;20058;-79
2024/01/27 10:09:54;;;;;;;7.03;2.85;;;14.60;99.90;;;;;;4987741;28;20042;-79
2024/01/27 10:12:22;;;;;;;6.32;2.67;;;14.70;99.90;;;;;;4991747;28;20046;-80
2024/01/27 10:14:50;;;;;;;7.25;2.25;;;14.90;99.90;;;;;;5001407;28;20049;-80
2024/01/27 10:17:23;;;;;;;7.70;2.47;;;15.20;99.90;;;;;;4988815;28;20045;-77
2024/01/27 10:20:10;;;;;;;6.72;2.40;;;15.30;99.90;;;;;;4974092;28;20049;-80
2024/01/27 10:22:43;;;;;;;6.55;2.28;;;15.40;99.90;;;;;;4993470;28;20068;-80
2024/01/27 10:25:12;;;;;;;7.40;2.55;;;15.40;99.90;;;;;;4981264;28;20050;-80
2024/01/27 10:27:38;;;;;;;7.32;1.92;;;15.60;99.90;;;;;;4997682;28;20453;-80
2024/01/27 10:30:06;;;;;;;4.72;1.75;;;15.60;99.90;;;;;;5013023;28;20117;-80
2024/01/27 10:32:33;;;;;;;5.82;1.92;;;15.60;99.90;;;;;;4997893;28;20050;-79
2024/01/27 10:35:03;;;;;;;6.80;2.05;;;15.70;99.90;;;;;;4995469;28;20052;-78
2024/01/27 10:37:29;;;;;;;6.47;1.73;;;15.90;99.90;;;;;;5006506;28;20063;-80
2024/01/27 10:40:07;;;;;;;9.43;2.38;;;16.10;99.90;;;;;;5000611;28;20037;-79
2024/01/27 10:42:35;;;;;;;8.18;2.80;;;16.10;99.90;;;;;;5004442;28;20041;-79
2024/01/27 10:45:02;;;;;;;9.98;2.08;;;16.20;99.90;;;;;;4995362;28;20043;-79
2024/01/27 10:47:30;;;;;;;9.23;1.95;;;16.50;99.90;;;;;;4994357;28;20050;-79
2024/01/27 10:49:58;;;;;;;11.10;2.50;;;16.50;99.90;;;;;;4975714;28;20037;-79
2024/01/27 10:52:28;;;;;;;8.73;3.30;;;16.60;99.90;;;;;;4974722;28;20125;-79
2024/01/27 10:55:07;;;;;;;4.97;1.88;;;16.60;99.90;;;;;;4978513;28;20505;-79
2024/01/27 10:57:37;;;;;;;8.93;2.55;;;16.90;99.90;;;;;;4994959;28;20050;-79
2024/01/27 11:00:06;;;;;;;8.93;2.25;;;17.00;99.90;;;;;;4990690;28;20030;-79
2024/01/27 11:02:33;;;;;;;;;;;17.10;99.90;;;;;;5003651;28;20037;-79
2024/01/27 11:05:03;;;;;;;4.60;1.70;;;16.70;99.90;;;;;;4997400;28;19917;-78
2024/01/27 11:07:33;;;;;;;9.13;2.60;;;16.50;99.90;;;;;;5001465;28;20100;-78
2024/01/27 11:09:59;;;;;;;6.40;2.25;;;16.40;99.90;;;;;;5009545;28;20049;-78
2024/01/27 11:12:25;;;;;;;4.22;2.33;;;16.30;99.90;;;;;;5000153;28;20041;-77
2024/01/27 11:14:52;;;;;;;9.95;2.40;;;16.20;99.90;;;;;;4979901;28;20042;-78
2024/01/27 11:17:19;;;;;;;7.03;1.90;;;15.90;99.90;;;;;;4988207;28;20502;-78
2024/01/27 11:19:46;;;;;;;6.65;1.70;;;15.70;99.90;;;;;;5004659;28;20045;-78
2024/01/27 11:22:39;;;;;;;10.50;2.00;;;15.40;99.90;;;;;;4997863;28;20418;-78
2024/01/27 11:25:14;;;;;;;6.78;1.27;;;15.10;99.90;;;;;;4978421;28;20053;-78
2024/01/27 11:27:41;;;;;;;6.57;1.95;;;15.10;99.90;;;;;;4990111;28;20083;-78
2024/01/27 11:30:29;;;;;;;3.85;1.67;;;15.50;99.90;;;;;;5001361;28;20116;-78
2024/01/27 11:33:00;;;;;;;6.38;1.52;;;15.90;99.90;;;;;;4992140;28;20197;-78
2024/01/27 11:35:26;;;;;;;5.00;2.25;;;15.70;99.90;;;;;;4984375;28;20509;-78
2024/01/27 11:37:52;;;;;;;4.07;1.33;;;15.40;99.90;;;;;;4986327;28;20034;-78
2024/01/27 11:40:18;;;;;;;4.85;1.50;;;15.30;99.90;;;;;;4992805;28;20042;-78
2024/01/27 11:42:54;;;;;;;6.28;1.70;;;15.30;99.90;;;;;;5002271;28;20060;-78
2024/01/27 11:45:20;;;;;;;5.55;1.83;;;14.90;99.90;;;;;;4989082;28;20052;-78
2024/01/27 11:47:46;;;;;;;3.47;1.63;;;14.60;99.90;;;;;;4989409;28;20034;-78
2024/01/27 11:50:11;;;;;;;7.88;2.53;;;14.40;99.90;;;;;;4994805;28;20070;-78
2024/01/27 11:52:37;;;;;;;6.20;1.70;;;14.30;99.90;;;;;;4984149;28;20046;-78
2024/01/27 11:55:04;;;;;;;4.18;1.95;;;14.10;99.90;;;;;;4990016;28;20038;-78
2024/01/27 11:57:30;;;;;;;9.25;2.25;;;13.90;99.90;;;;;;4987510;28;20050;-77
2024/01/27 11:59:56;;;;;;;7.55;1.63;;;13.80;99.90;;;;;;4989304;28;20394;-77
2024/01/27 12:02:22;;;;;;;6.72;1.20;;;14.20;99.90;;;;;;4993940;28;20121;-77
2024/01/27 12:04:49;;;;;;;7.72;2.78;;;14.30;99.90;;;;;;4991097;28;20118;-78
2024/01/27 12:07:18;;;;;;;6.38;1.88;;;14.60;99.90;;;;;;4996577;28;20048;-79
2024/01/27 12:09:45;;;;;;;3.65;1.67;;;14.30;99.90;;;;;;4981250;28;20046;-78
2024/01/27 12:12:14;;;;;;;3.40;1.67;;;14.10;99.90;;;;;;4987234;28;20056;-78
2024/01/27 12:14:41;;;;;;;8.60;1.85;;;14.30;99.90;;;;;;4993523;28;20417;-78
2024/01/27 12:17:10;;;;;;;12.57;1.98;;;14.30;99.90;;;;;;4981537;28;20081;-77
2024/01/27 12:19:36;;;;;;;7.03;2.10;;;14.00;99.90;;;;;;4977045;28;20053;-78
2024/01/27 12:22:03;;;;;;;14.02;3.10;;;13.60;99.90;;;;;;4996167;28;20502;-78
2024/01/27 12:24:34;;;;;;;3.47;1.40;;;13.70;99.90;;;;;;4993960;28;20046;-78
2024/01/27 12:26:59;;;;;;;11.18;2.65;;;13.80;99.90;;;;;;4987213;28;20049;-77
2024/01/27 12:29:25;;;;;;;7.05;1.92;;;13.80;99.90;;;;;;4965612;28;20117;-77
2024/01/27 12:31:51;;;;;;;4.18;1.63;;;13.40;99.90;;;;;;4980278;28;20442;-76
2024/01/27 12:34:19;;;;;;;8.77;2.30;;;13.20;99.90;;;;;;4998052;28;20494;-77
2024/01/27 12:36:45;;;;;;;7.18;2.25;;;13.30;99.90;;;;;;4987177;28;20049;-77
2024/01/27 12:39:11;;;;;;;6.30;2.08;;;13.00;99.90;;;;;;4976547;28;20046;-77
2024/01/27 12:41:37;;;;;;;7.55;1.90;;;12.60;99.90;;;;;;4987065;28;20037;-77
2024/01/27 12:44:03;;;;;;;6.25;2.13;;;12.40;99.90;;;;;;4988778;28;20374;-77
2024/01/27 12:46:29;;;;;;;7.78;2.03;;;12.10;99.90;;;;;;4992290;28;20045;-79
2024/01/27 12:48:55;;;;;;;7.57;1.90;;;11.70;99.90;;;;;;4989418;28;20046;-77
2024/01/27 12:51:21;;;;;;;12.70;2.50;;;11.40;99.90;;;;;;5003673;28;20057;-78